Time;durP1;ratioP1;P1;durP2;ratioP2;P2;SDS_P1;SDS_P2;PMS_P1;PMS_P2;Temp;Humidity;BMP_temperature;BMP_pressure;BME280_temperature;BME280_humidity;BME280_pressure;Samples;Min_cycle;Max_cycle;Signal;HPM_P1;HPM_P2
2020/12/04 00:00:35;;;;;;;2.57;2.33;;;1.70;92.80;;;;;;4987838;28;20232;-69
2020/12/04 00:03:01;;;;;;;2.30;2.10;;;1.70;92.60;;;;;;5002414;28;20178;-68
2020/12/04 00:05:28;;;;;;;2.43;2.23;;;1.70;92.60;;;;;;4987908;28;20186;-68
2020/12/04 00:07:54;;;;;;;2.37;2.27;;;1.70;92.80;;;;;;4986122;28;20177;-68
2020/12/04 00:10:19;;;;;;;4.57;2.07;;;1.70;92.90;;;;;;4987695;28;20200;-69
2020/12/04 00:12:45;;;;;;;4.87;2.43;;;1.60;93.70;;;;;;4986753;28;20209;-68
2020/12/04 00:15:11;;;;;;;2.57;2.30;;;1.60;93.50;;;;;;4987991;28;20185;-69
2020/12/04 00:17:37;;;;;;;3.53;2.40;;;1.60;93.30;;;;;;4987187;28;20202;-68
2020/12/04 00:20:06;;;;;;;2.47;2.33;;;1.60;93.30;;;;;;4987759;28;20177;-68
2020/12/04 00:22:32;;;;;;;2.73;2.30;;;1.70;93.30;;;;;;4987270;28;20210;-68
2020/12/04 00:24:58;;;;;;;4.03;2.17;;;1.70;94.10;;;;;;4987312;28;20184;-69
2020/12/04 00:27:23;;;;;;;2.37;1.90;;;1.70;93.80;;;;;;4987201;28;20197;-69
2020/12/04 00:29:50;;;;;;;1.70;1.60;;;1.70;93.50;;;;;;4987476;28;20186;-69
2020/12/04 00:32:16;;;;;;;2.27;1.97;;;1.80;93.50;;;;;;4988209;28;20197;-69
2020/12/04 00:34:41;;;;;;;4.03;2.23;;;1.80;93.40;;;;;;4986638;28;20182;-69
2020/12/04 00:37:07;;;;;;;2.20;1.93;;;1.80;93.40;;;;;;4986284;28;20217;-68
2020/12/04 00:39:34;;;;;;;2.50;1.90;;;1.80;93.60;;;;;;4987169;28;20511;-68
2020/12/04 00:42:00;;;;;;;2.20;1.80;;;1.80;93.70;;;;;;4988423;28;20186;-68
2020/12/04 00:44:26;;;;;;;3.00;1.90;;;1.80;93.30;;;;;;4985908;28;20292;-68
2020/12/04 00:46:52;;;;;;;2.13;1.83;;;1.90;93.00;;;;;;4988006;28;20213;-68
2020/12/04 00:49:18;;;;;;;2.37;2.17;;;1.90;93.10;;;;;;4986146;28;20189;-69
2020/12/04 00:51:43;;;;;;;1.63;1.47;;;1.90;93.30;;;;;;4985998;28;20237;-68
2020/12/04 00:54:09;;;;;;;3.40;2.00;;;1.80;93.10;;;;;;4986457;28;20523;-69
2020/12/04 00:56:35;;;;;;;1.67;1.57;;;1.80;93.50;;;;;;4987695;28;20372;-68
2020/12/04 00:59:01;;;;;;;4.27;1.40;;;1.80;93.50;;;;;;4991398;28;20185;-68
2020/12/04 01:01:27;;;;;;;2.13;1.80;;;1.80;93.70;;;;;;4990989;28;20785;-69
2020/12/04 01:03:53;;;;;;;1.80;1.70;;;1.80;94.30;;;;;;4989159;28;20288;-68
2020/12/04 01:06:20;;;;;;;2.23;2.03;;;1.80;94.10;;;;;;4990280;28;20300;-68
2020/12/04 01:08:45;;;;;;;2.33;2.13;;;1.80;94.00;;;;;;4989507;28;20223;-68
2020/12/04 01:11:11;;;;;;;1.50;1.40;;;1.80;94.10;;;;;;4989760;28;20296;-68
2020/12/04 01:13:38;;;;;;;2.53;1.87;;;1.90;93.90;;;;;;4989396;28;20534;-68
2020/12/04 01:16:07;;;;;;;2.07;1.93;;;1.90;94.30;;;;;;4990445;28;20202;-68
2020/12/04 01:18:32;;;;;;;2.83;2.07;;;1.80;94.60;;;;;;4990665;28;20588;-68
2020/12/04 01:20:58;;;;;;;1.57;1.50;;;1.80;94.80;;;;;;4990472;28;20205;-68
2020/12/04 01:23:24;;;;;;;3.33;1.73;;;1.80;95.10;;;;;;4991197;28;20202;-68
2020/12/04 01:25:49;;;;;;;2.00;1.87;;;1.90;95.00;;;;;;4990578;28;20209;-68
2020/12/04 01:28:15;;;;;;;1.60;1.50;;;1.80;95.00;;;;;;4990795;28;20208;-68
2020/12/04 01:30:40;;;;;;;1.13;1.13;;;1.80;95.40;;;;;;4990492;28;20530;-68
2020/12/04 01:33:06;;;;;;;1.10;1.10;;;1.90;95.10;;;;;;4989247;28;20212;-68
2020/12/04 01:35:32;;;;;;;2.47;1.87;;;1.90;95.30;;;;;;4988241;28;20241;-68
2020/12/04 01:37:57;;;;;;;1.57;1.47;;;1.90;95.20;;;;;;4990939;28;20185;-68
2020/12/04 01:40:24;;;;;;;1.80;1.50;;;2.00;94.90;;;;;;4990027;28;20272;-69
2020/12/04 01:42:50;;;;;;;1.77;1.30;;;2.00;94.90;;;;;;4990413;28;20201;-68
2020/12/04 01:45:16;;;;;;;2.90;2.20;;;2.10;94.70;;;;;;4990818;28;20532;-68
2020/12/04 01:47:42;;;;;;;1.53;1.43;;;2.10;94.20;;;;;;4990075;28;20516;-68
2020/12/04 01:50:08;;;;;;;1.73;1.63;;;2.20;94.20;;;;;;4988681;28;20192;-68
2020/12/04 01:52:33;;;;;;;1.17;1.17;;;2.20;94.10;;;;;;4987099;28;20209;-68
2020/12/04 01:55:00;;;;;;;1.03;1.03;;;2.20;93.70;;;;;;4989522;28;20177;-68
2020/12/04 01:57:33;;;;;;;1.73;1.63;;;2.20;94.10;;;;;;4989878;28;20193;-68
2020/12/04 01:59:58;;;;;;;1.87;1.67;;;2.20;94.00;;;;;;4989356;28;20208;-68
2020/12/04 02:02:24;;;;;;;1.23;1.23;;;2.30;93.80;;;;;;4988685;28;20605;-68
2020/12/04 02:04:51;;;;;;;1.43;1.33;;;2.30;93.40;;;;;;4991023;28;20196;-68
2020/12/04 02:07:34;;;;;;;2.17;2.00;;;2.30;93.60;;;;;;4990220;28;20752;-68
2020/12/04 02:10:13;;;;;;;1.70;1.60;;;2.30;93.40;;;;;;4986776;28;20177;-68
2020/12/04 02:12:40;;;;;;;2.40;1.90;;;2.30;93.40;;;;;;4989564;28;20534;-68
2020/12/04 02:15:06;;;;;;;3.70;1.80;;;2.30;93.20;;;;;;5004548;28;20185;-68
2020/12/04 02:17:33;;;;;;;3.63;2.43;;;2.20;93.30;;;;;;4988463;28;20590;-68
2020/12/04 02:20:00;;;;;;;2.23;2.07;;;2.20;93.30;;;;;;4989738;28;20233;-68
2020/12/04 02:22:33;;;;;;;1.93;1.80;;;2.20;93.30;;;;;;4989267;28;20221;-68
2020/12/04 02:25:00;;;;;;;2.03;1.83;;;2.10;94.00;;;;;;4989126;28;20182;-68
2020/12/04 02:27:26;;;;;;;2.17;1.70;;;2.10;93.90;;;;;;4988254;28;20216;-68
2020/12/04 02:29:51;;;;;;;2.73;1.53;;;2.10;94.00;;;;;;4988591;28;20193;-68
2020/12/04 02:32:17;;;;;;;2.13;2.00;;;2.10;94.20;;;;;;4989329;28;20213;-68
2020/12/04 02:34:43;;;;;;;1.87;1.67;;;2.10;95.00;;;;;;4989444;28;20177;-69
2020/12/04 02:37:09;;;;;;;2.17;1.93;;;2.10;94.90;;;;;;4988920;28;20528;-69
2020/12/04 02:39:36;;;;;;;2.20;1.30;;;2.20;94.80;;;;;;4989494;28;20184;-69
2020/12/04 02:42:03;;;;;;;1.90;1.70;;;2.20;95.20;;;;;;4988006;28;20209;-69
2020/12/04 02:44:29;;;;;;;2.60;2.13;;;2.30;95.00;;;;;;5020979;28;20217;-69
2020/12/04 02:46:55;;;;;;;2.30;2.10;;;2.40;94.60;;;;;;4987354;28;20237;-69
2020/12/04 02:49:21;;;;;;;2.67;2.10;;;2.40;94.50;;;;;;4987292;28;20185;-68
2020/12/04 02:51:50;;;;;;;1.97;1.43;;;2.50;94.30;;;;;;4988584;28;20624;-68
2020/12/04 02:54:17;;;;;;;3.23;2.30;;;2.50;94.10;;;;;;4989264;28;20188;-68
2020/12/04 02:56:43;;;;;;;3.70;1.97;;;2.60;94.00;;;;;;4988633;28;20208;-68
2020/12/04 02:59:09;;;;;;;2.10;1.80;;;2.60;94.00;;;;;;4988533;28;20411;-68
2020/12/04 03:01:35;;;;;;;2.13;1.93;;;2.70;94.10;;;;;;4987930;28;20212;-68
2020/12/04 03:04:00;;;;;;;1.63;1.53;;;2.70;93.80;;;;;;4989237;28;20178;-69
2020/12/04 03:06:26;;;;;;;2.27;2.10;;;2.70;93.70;;;;;;4988914;28;20230;-68
2020/12/04 03:08:52;;;;;;;1.80;1.70;;;2.80;93.90;;;;;;4988538;28;20198;-68
2020/12/04 03:11:23;;;;;;;3.53;2.13;;;2.80;93.70;;;;;;4987721;28;20215;-68
2020/12/04 03:13:48;;;;;;;1.87;1.77;;;2.80;93.60;;;;;;4988589;28;20534;-68
2020/12/04 03:16:15;;;;;;;2.43;2.30;;;2.80;94.10;;;;;;5002981;28;20251;-69
2020/12/04 03:18:41;;;;;;;2.13;2.00;;;2.80;94.50;;;;;;4987363;28;20184;-68
2020/12/04 03:21:07;;;;;;;2.60;2.00;;;2.80;94.70;;;;;;4987979;28;20212;-68
2020/12/04 03:23:33;;;;;;;3.97;2.30;;;2.80;94.50;;;;;;4988247;28;20182;-68
2020/12/04 03:25:59;;;;;;;2.43;2.00;;;2.80;94.90;;;;;;4987653;28;20213;-68
2020/12/04 03:28:25;;;;;;;4.23;1.87;;;2.80;94.80;;;;;;4987654;28;20201;-68
2020/12/04 03:30:51;;;;;;;3.83;2.13;;;2.80;94.90;;;;;;4988264;28;20201;-69
2020/12/04 03:33:16;;;;;;;2.83;1.80;;;2.90;94.90;;;;;;4987099;28;20201;-68
2020/12/04 03:35:42;;;;;;;2.27;2.03;;;2.90;94.90;;;;;;4987042;28;20201;-68
2020/12/04 03:38:08;;;;;;;1.97;1.77;;;2.90;94.80;;;;;;4988719;28;20178;-68
2020/12/04 03:40:33;;;;;;;3.03;2.13;;;2.90;94.90;;;;;;4988561;28;20509;-69
2020/12/04 03:42:59;;;;;;;2.03;1.83;;;2.80;94.90;;;;;;4988044;28;20224;-69
2020/12/04 03:45:25;;;;;;;1.53;1.43;;;2.90;95.00;;;;;;4988299;28;20178;-68
2020/12/04 03:47:50;;;;;;;3.80;2.07;;;2.90;94.90;;;;;;4987702;28;20209;-69
2020/12/04 03:50:16;;;;;;;3.23;2.17;;;2.90;94.70;;;;;;4987058;28;20184;-69
2020/12/04 03:52:42;;;;;;;2.13;1.80;;;2.90;94.90;;;;;;4987189;28;20599;-69
2020/12/04 03:55:07;;;;;;;1.97;1.80;;;2.90;95.00;;;;;;4988493;28;20509;-69
2020/12/04 03:57:33;;;;;;;1.80;1.70;;;2.90;94.90;;;;;;4987022;28;20201;-69
2020/12/04 03:59:59;;;;;;;1.13;1.07;;;2.90;94.70;;;;;;4987177;28;20185;-68
2020/12/04 04:02:25;;;;;;;1.70;1.53;;;3.00;94.80;;;;;;4988327;28;20236;-69
2020/12/04 04:04:51;;;;;;;1.50;1.40;;;3.00;94.90;;;;;;4988067;28;20463;-69
2020/12/04 04:07:16;;;;;;;1.93;1.17;;;3.00;94.60;;;;;;4987527;28;20488;-69
2020/12/04 04:09:42;;;;;;;1.43;1.33;;;3.10;94.30;;;;;;4982267;28;20202;-69
2020/12/04 04:12:09;;;;;;;2.03;1.70;;;3.10;94.30;;;;;;5012128;28;20205;-69
2020/12/04 04:14:35;;;;;;;1.83;1.73;;;3.10;94.10;;;;;;4987470;28;20275;-68
2020/12/04 04:17:00;;;;;;;1.63;1.53;;;3.10;94.20;;;;;;4987117;28;20205;-68
2020/12/04 04:19:26;;;;;;;1.67;1.57;;;3.10;94.30;;;;;;4986971;28;20308;-69
2020/12/04 04:21:53;;;;;;;1.53;1.47;;;3.10;94.20;;;;;;4988304;28;20209;-68
2020/12/04 04:24:18;;;;;;;2.50;1.33;;;3.00;94.40;;;;;;4987648;28;20181;-69
2020/12/04 04:26:48;;;;;;;2.03;1.90;;;3.00;94.40;;;;;;4987787;28;20216;-68
2020/12/04 04:29:13;;;;;;;2.57;1.60;;;3.10;94.40;;;;;;4988226;28;20193;-69
2020/12/04 04:31:39;;;;;;;2.23;2.03;;;3.10;94.10;;;;;;4987628;28;20683;-69
2020/12/04 04:34:05;;;;;;;1.77;1.67;;;3.10;94.30;;;;;;4991788;28;20185;-69
2020/12/04 04:36:30;;;;;;;1.50;1.33;;;3.10;94.30;;;;;;4988798;28;20364;-69
2020/12/04 04:38:56;;;;;;;3.50;2.07;;;3.10;94.60;;;;;;4991829;28;20173;-69
2020/12/04 04:41:22;;;;;;;1.90;1.80;;;3.00;94.60;;;;;;4990777;28;20607;-68
2020/12/04 04:43:48;;;;;;;1.50;1.40;;;3.00;94.80;;;;;;4991314;28;20185;-68
2020/12/04 04:46:42;;;;;;;1.67;1.60;;;3.00;94.70;;;;;;4991197;28;20228;-68
2020/12/04 04:49:27;;;;;;;1.20;1.20;;;3.00;94.40;;;;;;4988408;28;20197;-68
2020/12/04 04:51:55;;;;;;;1.63;1.40;;;3.00;94.70;;;;;;4979522;28;20213;-67
2020/12/04 04:54:22;;;;;;;1.30;1.20;;;3.00;94.60;;;;;;4989141;28;20190;-68
2020/12/04 04:56:49;;;;;;;1.80;1.57;;;3.10;94.40;;;;;;4988704;28;20275;-67
2020/12/04 04:59:18;;;;;;;2.17;1.83;;;3.10;94.30;;;;;;4987121;28;20185;-68
2020/12/04 05:01:45;;;;;;;1.77;1.67;;;3.10;94.40;;;;;;4988257;28;20216;-67
2020/12/04 05:04:11;;;;;;;1.70;1.60;;;3.10;94.40;;;;;;4971647;28;20601;-68
2020/12/04 05:06:37;;;;;;;2.13;1.97;;;3.10;94.30;;;;;;4988380;28;20232;-67
2020/12/04 05:09:08;;;;;;;1.50;1.50;;;3.10;94.30;;;;;;4988067;28;20518;-67
2020/12/04 05:11:35;;;;;;;2.17;1.40;;;3.20;94.30;;;;;;4970477;28;20210;-68
2020/12/04 05:14:22;;;;;;;2.07;1.57;;;3.20;94.10;;;;;;4987493;28;20193;-68
2020/12/04 05:16:51;;;;;;;1.93;1.80;;;3.20;94.10;;;;;;4970781;28;20206;-68
2020/12/04 05:19:28;;;;;;;2.63;1.70;;;3.20;94.10;;;;;;4988669;28;20214;-68
2020/12/04 05:21:55;;;;;;;3.90;1.87;;;3.30;93.80;;;;;;4988107;28;20627;-68
2020/12/04 05:24:26;;;;;;;6.43;2.43;;;3.30;93.70;;;;;;4987789;28;20186;-68
2020/12/04 05:26:51;;;;;;;3.87;2.67;;;3.40;93.50;;;;;;4989626;28;20644;-68
2020/12/04 05:29:18;;;;;;;2.93;2.47;;;3.30;93.40;;;;;;4989565;28;20520;-68
2020/12/04 05:31:44;;;;;;;3.80;1.77;;;3.30;93.50;;;;;;4989951;28;20359;-67
2020/12/04 05:34:21;;;;;;;3.27;2.77;;;3.30;93.60;;;;;;4987239;28;20435;-68
2020/12/04 05:36:50;;;;;;;2.90;2.70;;;3.20;94.20;;;;;;4986170;28;20202;-68
2020/12/04 05:39:16;;;;;;;3.17;1.93;;;3.20;94.20;;;;;;4971004;28;20174;-68
2020/12/04 05:41:48;;;;;;;4.07;2.93;;;3.10;94.80;;;;;;4977492;28;20351;-68
2020/12/04 05:44:16;;;;;;;3.40;1.93;;;3.10;94.80;;;;;;4990234;28;20185;-67
2020/12/04 05:46:52;;;;;;;3.20;3.00;;;3.20;94.60;;;;;;4989989;28;20209;-68
2020/12/04 05:49:18;;;;;;;2.37;2.17;;;3.20;94.40;;;;;;4989614;28;20173;-68
2020/12/04 05:51:45;;;;;;;3.07;2.87;;;3.20;94.40;;;;;;4990624;28;20212;-68
2020/12/04 05:54:11;;;;;;;2.43;2.07;;;3.20;94.30;;;;;;4989948;28;20189;-68
2020/12/04 05:56:39;;;;;;;3.83;2.60;;;3.30;94.30;;;;;;4986780;28;20783;-68
2020/12/04 05:59:10;;;;;;;4.63;2.77;;;3.40;94.10;;;;;;4990050;28;20197;-69
2020/12/04 06:01:36;;;;;;;2.87;2.63;;;3.40;94.10;;;;;;4988941;28;20202;-69
2020/12/04 06:04:01;;;;;;;4.40;2.43;;;3.40;94.10;;;;;;4988595;28;20208;-69
2020/12/04 06:06:32;;;;;;;2.80;2.53;;;3.50;94.10;;;;;;4983177;28;20263;-69
2020/12/04 06:09:08;;;;;;;3.00;2.43;;;3.50;93.90;;;;;;5016316;28;20276;-69
2020/12/04 06:11:43;;;;;;;6.37;3.03;;;3.50;93.80;;;;;;4982657;28;20310;-69
2020/12/04 06:14:17;;;;;;;3.50;2.43;;;3.60;93.80;;;;;;4978199;28;20173;-68
2020/12/04 06:17:03;;;;;;;4.57;3.60;;;3.60;93.80;;;;;;4983278;28;20206;-68
2020/12/04 06:19:35;;;;;;;2.50;2.33;;;3.60;93.70;;;;;;4982252;28;20194;-68
2020/12/04 06:22:05;;;;;;;3.23;2.93;;;3.70;93.70;;;;;;4988004;28;20519;-68
2020/12/04 06:24:32;;;;;;;3.43;3.13;;;3.70;93.60;;;;;;4986891;28;20231;-68
2020/12/04 06:26:58;;;;;;;4.00;3.50;;;3.80;93.60;;;;;;4987398;28;20260;-68
2020/12/04 06:29:24;;;;;;;4.00;3.60;;;3.80;93.50;;;;;;4990288;28;20525;-68
2020/12/04 06:31:50;;;;;;;5.40;3.47;;;3.90;93.50;;;;;;4983953;28;20201;-68
2020/12/04 06:34:21;;;;;;;2.60;2.50;;;3.90;93.60;;;;;;4988328;28;20232;-68
2020/12/04 06:36:48;;;;;;;3.40;3.10;;;4.00;93.50;;;;;;4986544;28;20216;-68
2020/12/04 06:39:40;;;;;;;3.63;3.33;;;4.00;93.40;;;;;;4986664;28;20537;-69
2020/12/04 06:42:07;;;;;;;3.93;3.33;;;4.10;93.20;;;;;;4989249;28;20308;-69
2020/12/04 06:44:33;;;;;;;6.83;3.97;;;4.10;93.20;;;;;;4985874;28;20524;-69
2020/12/04 06:47:00;;;;;;;5.40;3.90;;;4.10;93.00;;;;;;4987755;28;20205;-69
2020/12/04 06:49:35;;;;;;;5.27;3.10;;;4.20;93.00;;;;;;4988214;28;20624;-69
2020/12/04 06:52:10;;;;;;;8.17;3.67;;;4.20;92.80;;;;;;4986520;28;20287;-68
2020/12/04 06:54:40;;;;;;;4.90;3.80;;;4.20;92.90;;;;;;4999381;28;20181;-69
2020/12/04 06:57:07;;;;;;;6.57;3.73;;;4.20;92.90;;;;;;4987309;28;20216;-68
2020/12/04 06:59:43;;;;;;;4.30;3.37;;;4.20;92.90;;;;;;4988166;28;20182;-69
2020/12/04 07:02:16;;;;;;;3.83;3.30;;;4.20;92.90;;;;;;4987956;28;20288;-70
2020/12/04 07:04:47;;;;;;;5.53;3.37;;;4.20;92.90;;;;;;4988196;28;20185;-67
2020/12/04 07:07:26;;;;;;;6.60;4.23;;;4.20;92.70;;;;;;4988515;28;20289;-68
2020/12/04 07:09:53;;;;;;;4.80;3.37;;;4.20;92.80;;;;;;4981342;28;20600;-67
2020/12/04 07:12:20;;;;;;;4.47;3.97;;;4.30;92.60;;;;;;4988617;28;20258;-68
2020/12/04 07:14:51;;;;;;;4.37;3.43;;;4.30;92.70;;;;;;4987707;28;20188;-67
2020/12/04 07:17:21;;;;;;;7.70;4.63;;;4.40;92.60;;;;;;4987006;28;20206;-67
2020/12/04 07:19:52;;;;;;;6.70;4.53;;;4.50;92.40;;;;;;4985189;28;20670;-67
2020/12/04 07:22:20;;;;;;;5.13;4.60;;;4.50;92.30;;;;;;4981565;28;20645;-67
2020/12/04 07:24:47;;;;;;;4.70;3.77;;;4.60;92.20;;;;;;4988216;28;20220;-67
2020/12/04 07:27:15;;;;;;;5.40;3.80;;;4.60;92.20;;;;;;4986454;28;20202;-68
2020/12/04 07:29:41;;;;;;;8.93;4.27;;;4.60;92.00;;;;;;4989417;28;20238;-68
2020/12/04 07:32:07;;;;;;;6.93;4.97;;;4.60;91.80;;;;;;4985241;28;20613;-67
2020/12/04 07:34:37;;;;;;;5.97;4.23;;;4.60;91.90;;;;;;4986292;28;20201;-68
2020/12/04 07:37:04;;;;;;;5.70;3.90;;;4.60;92.00;;;;;;5012072;28;20205;-67
2020/12/04 07:39:33;;;;;;;5.63;4.40;;;4.70;92.00;;;;;;4983150;28;20190;-68
2020/12/04 07:41:59;;;;;;;4.70;4.03;;;4.70;91.90;;;;;;4982303;28;20292;-67
2020/12/04 07:44:32;;;;;;;5.93;4.63;;;4.80;91.80;;;;;;4983347;28;20185;-67
2020/12/04 07:46:59;;;;;;;6.77;4.10;;;4.80;91.60;;;;;;4983499;28;20267;-68
2020/12/04 07:49:26;;;;;;;6.03;4.40;;;4.90;91.60;;;;;;4982254;28;20623;-67
2020/12/04 07:51:52;;;;;;;8.33;5.43;;;4.90;91.40;;;;;;4981438;28;20271;-67
2020/12/04 07:54:20;;;;;;;8.00;5.67;;;5.00;91.30;;;;;;4983243;28;20541;-68
2020/12/04 07:56:54;;;;;;;11.03;6.70;;;4.90;91.30;;;;;;4982764;28;20280;-68
2020/12/04 07:59:30;;;;;;;7.57;5.27;;;5.00;91.20;;;;;;4984579;28;20182;-68
2020/12/04 08:01:56;;;;;;;7.07;5.17;;;5.00;91.10;;;;;;4983236;28;20248;-68
2020/12/04 08:04:22;;;;;;;7.87;5.33;;;5.00;91.10;;;;;;4986034;28;20265;-68
2020/12/04 08:06:48;;;;;;;5.63;4.57;;;5.00;91.10;;;;;;4983369;28;20254;-68
2020/12/04 08:09:19;;;;;;;5.60;4.87;;;5.00;91.10;;;;;;4984357;28;20197;-69
2020/12/04 08:11:56;;;;;;;9.27;5.13;;;5.00;91.00;;;;;;4999399;28;20354;-68
2020/12/04 08:14:26;;;;;;;7.83;4.53;;;5.00;91.00;;;;;;4977618;28;20181;-68
2020/12/04 08:16:54;;;;;;;12.60;6.50;;;5.00;91.10;;;;;;4983179;28;20259;-68
2020/12/04 08:19:23;;;;;;;10.83;5.93;;;5.00;91.10;;;;;;4985208;28;20508;-68
2020/12/04 08:21:56;;;;;;;10.23;6.33;;;5.00;91.10;;;;;;5001092;28;20880;-68
2020/12/04 08:24:24;;;;;;;7.63;4.97;;;5.10;91.10;;;;;;4985085;28;20524;-68
2020/12/04 08:27:02;;;;;;;7.37;5.43;;;5.10;91.20;;;;;;4986470;28;20206;-68
2020/12/04 08:29:27;;;;;;;9.23;5.37;;;5.10;91.10;;;;;;4985393;28;20197;-68
2020/12/04 08:32:21;;;;;;;7.70;4.97;;;5.20;91.00;;;;;;4986794;28;20268;-68
2020/12/04 08:34:48;;;;;;;6.00;4.70;;;5.30;90.70;;;;;;4971625;28;20187;-68
2020/12/04 08:37:16;;;;;;;4.80;3.83;;;5.30;90.60;;;;;;4983198;28;20224;-69
2020/12/04 08:39:45;;;;;;;10.17;4.60;;;5.30;90.30;;;;;;4976996;28;20186;-68
2020/12/04 08:42:14;;;;;;;8.23;4.13;;;5.30;90.50;;;;;;4968328;28;20198;-68
2020/12/04 08:44:41;;;;;;;5.83;4.37;;;5.30;90.30;;;;;;4999615;28;20182;-68
2020/12/04 08:47:07;;;;;;;3.57;3.10;;;5.20;90.40;;;;;;4970719;28;20209;-68
2020/12/04 08:49:32;;;;;;;8.87;4.10;;;5.20;90.40;;;;;;4981660;28;20616;-68
2020/12/04 08:51:59;;;;;;;5.40;4.17;;;5.20;90.80;;;;;;4982689;28;20218;-68
2020/12/04 08:54:27;;;;;;;9.07;4.90;;;5.20;90.80;;;;;;4970524;28;20179;-68
2020/12/04 08:56:55;;;;;;;5.47;3.87;;;5.30;90.80;;;;;;4980474;28;20208;-68
2020/12/04 08:59:23;;;;;;;9.87;5.30;;;5.40;90.70;;;;;;4979269;28;20264;-68
2020/12/04 09:01:50;;;;;;;5.33;4.73;;;5.40;90.60;;;;;;4966744;28;20202;-68
2020/12/04 09:04:16;;;;;;;8.43;4.97;;;5.50;90.30;;;;;;5009850;28;20546;-68
2020/12/04 09:06:42;;;;;;;5.33;4.80;;;5.50;90.20;;;;;;4978794;28;20210;-68
2020/12/04 09:09:08;;;;;;;7.43;4.63;;;5.50;90.10;;;;;;5006481;28;20561;-68
2020/12/04 09:11:33;;;;;;;12.40;4.50;;;5.50;90.20;;;;;;4981987;28;20209;-68
2020/12/04 09:13:59;;;;;;;6.23;5.27;;;5.60;90.10;;;;;;4975814;28;20186;-68
2020/12/04 09:16:25;;;;;;;11.10;6.33;;;5.60;90.10;;;;;;4978618;28;20213;-68
2020/12/04 09:18:50;;;;;;;16.63;8.47;;;5.70;90.00;;;;;;4983615;28;20177;-68
2020/12/04 09:21:16;;;;;;;11.80;8.07;;;5.70;89.90;;;;;;4983665;28;20681;-68
2020/12/04 09:23:42;;;;;;;13.47;6.93;;;5.70;89.60;;;;;;4985439;28;20285;-68
2020/12/04 09:26:08;;;;;;;14.13;7.53;;;5.70;89.60;;;;;;4983731;28;20712;-68
2020/12/04 09:28:33;;;;;;;12.30;7.43;;;5.80;89.60;;;;;;5016458;28;20204;-67
2020/12/04 09:30:59;;;;;;;11.17;6.50;;;5.80;89.60;;;;;;4983594;28;20201;-68
2020/12/04 09:33:25;;;;;;;11.23;6.63;;;5.80;89.60;;;;;;4981690;28;20264;-67
2020/12/04 09:38:35;;;;;;;5.47;4.93;;;5.80;89.60;;;;;;4989692;28;20185;-66
2020/12/04 09:41:00;;;;;;;5.57;4.73;;;5.80;89.60;;;;;;4980434;28;20206;-67
2020/12/04 09:43:26;;;;;;;6.10;4.90;;;5.80;89.60;;;;;;4986112;28;20192;-67
2020/12/04 09:45:52;;;;;;;9.83;5.07;;;5.80;89.60;;;;;;4982089;28;20216;-66
2020/12/04 09:48:17;;;;;;;5.70;4.80;;;5.70;89.70;;;;;;4979009;28;20285;-66
2020/12/04 09:50:43;;;;;;;10.40;6.27;;;5.70;89.90;;;;;;5006156;28;20235;-66
2020/12/04 09:53:10;;;;;;;9.67;5.57;;;5.80;89.80;;;;;;5008019;28;20211;-67
2020/12/04 09:55:36;;;;;;;9.13;6.00;;;5.80;89.80;;;;;;5008821;28;20192;-66
2020/12/04 09:58:02;;;;;;;11.77;6.27;;;5.80;89.70;;;;;;5008325;28;20177;-67
2020/12/04 10:00:27;;;;;;;11.87;6.80;;;5.90;89.60;;;;;;5008937;28;20189;-66
2020/12/04 10:02:53;;;;;;;12.40;7.10;;;5.90;89.60;;;;;;5009941;28;20208;-67
2020/12/04 10:05:19;;;;;;;10.33;6.53;;;6.00;89.60;;;;;;5006534;28;20200;-66
2020/12/04 10:07:44;;;;;;;12.20;6.80;;;5.90;89.30;;;;;;5002984;28;20236;-66
2020/12/04 10:10:10;;;;;;;8.63;6.10;;;5.90;89.30;;;;;;5009027;28;20180;-67
2020/12/04 10:12:36;;;;;;;7.93;5.07;;;5.90;89.40;;;;;;5015430;28;20221;-66
2020/12/04 10:15:01;;;;;;;9.87;5.47;;;5.80;89.60;;;;;;5007641;28;20184;-69
2020/12/04 10:17:27;;;;;;;6.60;4.97;;;5.80;89.60;;;;;;5007318;28;20685;-67
2020/12/04 10:19:53;;;;;;;7.57;5.33;;;5.90;89.50;;;;;;5004569;28;20215;-67
2020/12/04 10:22:18;;;;;;;7.23;4.70;;;5.90;89.60;;;;;;5008560;28;20201;-67
2020/12/04 10:24:44;;;;;;;9.33;5.40;;;6.00;89.60;;;;;;4994828;28;20267;-67
2020/12/04 10:27:10;;;;;;;7.27;4.57;;;6.00;89.50;;;;;;5009013;28;20212;-66
2020/12/04 10:29:35;;;;;;;7.27;4.93;;;6.00;89.50;;;;;;5040661;28;20240;-67
2020/12/04 10:32:01;;;;;;;9.33;5.53;;;6.10;89.40;;;;;;5001677;28;20535;-67
2020/12/04 10:34:26;;;;;;;7.03;4.77;;;6.10;89.30;;;;;;5008109;28;20174;-66
2020/12/04 10:36:53;;;;;;;9.57;5.00;;;6.20;89.20;;;;;;4997891;28;20257;-67
2020/12/04 10:39:18;;;;;;;8.77;5.63;;;6.20;89.10;;;;;;5010061;28;20272;-69
2020/12/04 10:41:44;;;;;;;10.70;5.87;;;6.20;89.00;;;;;;4998418;28;20208;-66
2020/12/04 10:44:11;;;;;;;9.60;6.33;;;6.20;89.00;;;;;;5008398;28;20177;-66
2020/12/04 10:46:37;;;;;;;9.30;6.13;;;6.30;88.90;;;;;;4992891;28;20214;-67
2020/12/04 10:49:04;;;;;;;8.10;5.20;;;6.20;89.00;;;;;;4989101;28;20170;-67
2020/12/04 10:51:30;;;;;;;15.43;6.13;;;6.10;89.20;;;;;;5006122;28;20204;-67
2020/12/04 10:53:56;;;;;;;7.23;4.90;;;6.00;89.30;;;;;;5023962;28;20493;-67
2020/12/04 10:56:23;;;;;;;10.93;5.87;;;6.00;89.30;;;;;;5005990;28;20201;-67
2020/12/04 10:58:49;;;;;;;8.50;5.77;;;6.10;89.30;;;;;;5007046;28;20505;-68
2020/12/04 11:01:25;;;;;;;9.77;5.97;;;6.10;89.30;;;;;;5005373;28;20277;-67
2020/12/04 11:06:22;;;;;;;10.17;6.27;;;6.20;89.20;;;;;;5003827;28;20205;-66
2020/12/04 11:08:49;;;;;;;8.60;4.80;;;6.20;88.90;;;;;;4991683;28;20558;-67
2020/12/04 11:11:16;;;;;;;9.70;5.60;;;6.10;89.00;;;;;;4989973;28;20284;-67
2020/12/04 11:13:42;;;;;;;5.77;5.07;;;6.10;89.40;;;;;;4996192;28;20247;-67
2020/12/04 11:16:08;;;;;;;11.63;5.70;;;6.00;89.40;;;;;;5005550;28;20745;-67
2020/12/04 11:18:33;;;;;;;9.53;5.70;;;6.10;89.50;;;;;;5007694;28;20352;-67
2020/12/04 11:20:59;;;;;;;7.83;6.10;;;6.20;89.40;;;;;;5000951;28;20247;-67
2020/12/04 11:23:25;;;;;;;12.87;6.40;;;6.20;89.40;;;;;;5001890;28;20392;-67
2020/12/04 11:25:50;;;;;;;11.17;5.97;;;6.20;89.10;;;;;;5007305;28;20188;-67
2020/12/04 11:28:16;;;;;;;9.17;6.30;;;6.30;89.10;;;;;;5006670;28;20201;-67
2020/12/04 11:30:42;;;;;;;16.30;6.57;;;6.40;88.90;;;;;;5006229;28;20193;-66
2020/12/04 11:33:08;;;;;;;10.10;5.33;;;6.40;88.60;;;;;;5007310;28;20192;-67
2020/12/04 11:35:33;;;;;;;8.50;5.73;;;6.50;88.50;;;;;;5007471;28;20184;-67
2020/12/04 11:38:01;;;;;;;7.60;5.80;;;6.50;88.30;;;;;;5001544;28;20598;-68
2020/12/04 11:40:26;;;;;;;12.47;7.20;;;6.50;88.30;;;;;;5020444;28;20240;-69
2020/12/04 11:42:52;;;;;;;12.17;7.03;;;6.50;88.30;;;;;;5006705;28;20201;-68
2020/12/04 11:45:18;;;;;;;11.57;6.27;;;6.50;88.20;;;;;;5003877;28;20192;-67
2020/12/04 11:47:44;;;;;;;8.50;5.83;;;6.50;88.30;;;;;;5003231;28;20200;-68
2020/12/04 11:50:13;;;;;;;13.30;6.70;;;6.50;88.30;;;;;;5004832;28;20181;-67
2020/12/04 11:52:39;;;;;;;11.70;6.20;;;6.50;88.30;;;;;;5003457;28;20210;-67
2020/12/04 11:55:06;;;;;;;13.63;6.67;;;6.50;88.30;;;;;;5007748;28;20187;-68
2020/12/04 11:57:32;;;;;;;8.90;6.43;;;6.50;88.40;;;;;;5011897;28;20709;-68
2020/12/04 11:59:59;;;;;;;8.43;5.87;;;6.50;88.40;;;;;;5007176;28;20180;-69
2020/12/04 12:02:25;;;;;;;12.23;6.07;;;6.50;88.20;;;;;;4998852;28;20305;-68
2020/12/04 12:04:51;;;;;;;12.47;6.93;;;6.50;88.40;;;;;;5005669;28;20215;-68
2020/12/04 12:07:16;;;;;;;8.37;5.53;;;6.50;88.30;;;;;;5007684;28;20205;-68
2020/12/04 12:09:42;;;;;;;6.30;5.17;;;6.50;88.20;;;;;;5007710;28;20592;-69
2020/12/04 12:12:08;;;;;;;11.87;7.10;;;6.50;88.20;;;;;;5002507;28;20555;-68
2020/12/04 12:14:33;;;;;;;11.87;6.57;;;6.50;88.30;;;;;;4986848;28;20184;-68
2020/12/04 12:16:59;;;;;;;8.40;5.17;;;6.40;88.30;;;;;;5002771;28;20223;-68
2020/12/04 12:19:25;;;;;;;8.70;6.13;;;6.40;88.40;;;;;;5007562;28;20247;-69
2020/12/04 12:21:51;;;;;;;10.83;5.70;;;6.40;88.50;;;;;;5007334;28;20224;-68
2020/12/04 12:24:17;;;;;;;9.73;5.90;;;6.40;88.50;;;;;;5005607;28;20554;-68
2020/12/04 12:26:43;;;;;;;9.13;5.90;;;6.40;88.60;;;;;;5005527;28;20667;-68
2020/12/04 12:29:09;;;;;;;9.23;5.70;;;6.30;88.70;;;;;;5004681;28;20568;-68
2020/12/04 12:31:34;;;;;;;11.43;6.10;;;6.30;88.70;;;;;;5004427;28;20201;-69
2020/12/04 12:34:00;;;;;;;9.07;6.13;;;6.30;88.90;;;;;;5005517;28;20212;-68
2020/12/04 12:36:26;;;;;;;8.80;5.47;;;6.30;89.00;;;;;;5005190;28;20651;-68
2020/12/04 12:38:56;;;;;;;10.80;6.00;;;6.30;89.00;;;;;;5005925;28;20207;-69
2020/12/04 12:41:22;;;;;;;7.77;5.40;;;6.30;89.10;;;;;;5006972;28;20215;-69
2020/12/04 12:43:48;;;;;;;9.90;6.13;;;6.30;89.20;;;;;;5007281;28;20612;-69
2020/12/04 12:46:13;;;;;;;12.37;7.53;;;6.30;89.20;;;;;;5007281;28;20398;-69
2020/12/04 12:48:39;;;;;;;14.53;7.77;;;6.30;89.40;;;;;;5004136;28;20316;-69
2020/12/04 12:51:05;;;;;;;10.93;7.27;;;6.30;89.20;;;;;;5000554;28;20205;-69
2020/12/04 12:53:30;;;;;;;9.93;6.80;;;6.30;89.40;;;;;;5008810;28;20197;-69
2020/12/04 12:55:56;;;;;;;12.33;6.53;;;6.40;89.20;;;;;;5009655;28;20295;-69
2020/12/04 12:58:22;;;;;;;11.33;5.90;;;6.40;89.40;;;;;;5008529;28;20181;-69
2020/12/04 13:00:48;;;;;;;8.70;5.97;;;6.40;89.10;;;;;;5023658;28;20518;-69